avis per tempestes more information blitzortung!


avis per Pluja more information rain snow radar


Visita la nostra xarxa de llocs de meteo:

Template documentation
and downloads

And another site



Thunderstorms From: 20-07-2018 17:00 Until: 21-07-2018 01:59 warning for: Thunderstorms Level: Yellow info button
Rain From: 20-07-2018 17:00 Until: 21-07-2018 01:59 warning for: Rain Level: Yellow info button

Pagina Historial Weather Underground text

Diari Resum Novembre 5, 2017 Unitats:  Tant    Imperial   Mètric
« Previous Dia
SegĂźent Dia »
Diari Setmana Mensual Anual Personalitzada
  Maxima: Minima: Media:
Temperatura: TemperatureC °F /  -17.8 °C 7.3 °F /  -13.7 °C 13.6 °F /  -10.2 °C
Punt de rosada: DewpointC °F /  -17.8 °C 0.5 °F /  -17.5 °C 7.4 °F /  -13.7 °C
Humitat: Humidity % 48 % 68 %
Wind Speed: WindSpeedKMH mph /  0 km/h - 6.7 mph /  10.8 km/h
RĂ fegues de vent: WindSpeedGustKMH mph /  0 km/h - -
Vent:- - WSW
Pression baro: PressurehPa in /  0 hPa 1009.0 in /  34164.7 hPa -
Precipitacions: 0.0 in /  0 mm    
Historical Graphs
 
 
Dades de taula per Novembre 5, 2017
Temps Temperatura Punt de rosada Pression baro Vent Wind Speed RĂ fegues de vent Humitat Rainfall Rate (Hourly)
TemperatureC °F /  -17.8 °C DewpointC °F /  -17.8 °C PressurehPa in /  0 hPa Calm     Humidity % HourlyPrecipMM in /  0 mm
00:00 13.3 °F /  -10.4 °C 12.0 °F /  -11.1 °C 1010.0 in /  34198.6 hPa Calm     92 % 0.0 in /  0 mm
00:05 13.2 °F /  -10.4 °C 11.9 °F /  -11.2 °C 1010.0 in /  34198.6 hPa SW 2.6 mph /  4.2 km/h 2.6 mph /  4.2 km/h 92 % 0.0 in /  0 mm
00:10 13.2 °F /  -10.4 °C 11.8 °F /  -11.2 °C 1010.0 in /  34198.6 hPa SW 3.7 mph /  6 km/h 3.7 mph /  6 km/h 91 % 0.0 in /  0 mm
00:15 13.1 °F /  -10.5 °C 11.7 °F /  -11.3 °C 1010.0 in /  34198.6 hPa SW 3.7 mph /  6 km/h 3.7 mph /  6 km/h 91 % 0.0 in /  0 mm
00:20 13.1 °F /  -10.5 °C 11.7 °F /  -11.3 °C 1010.0 in /  34198.6 hPa WSW 3.9 mph /  6.3 km/h 3.9 mph /  6.3 km/h 91 % 0.0 in /  0 mm
00:25 13.1 °F /  -10.5 °C 11.7 °F /  -11.3 °C 1010.7 in /  34222.3 hPa SW 3.9 mph /  6.3 km/h 3.9 mph /  6.3 km/h 91 % 0.0 in /  0 mm
00:30 13.0 °F /  -10.6 °C 11.6 °F /  -11.3 °C 1010.7 in /  34222.3 hPa WSW 3.7 mph /  6 km/h 3.9 mph /  6.3 km/h 91 % 0.0 in /  0 mm
00:35 13.0 °F /  -10.6 °C 11.6 °F /  -11.3 °C 1010.7 in /  34222.3 hPa WSW 2.3 mph /  3.7 km/h 2.3 mph /  3.7 km/h 91 % 0.0 in /  0 mm
00:40 13.0 °F /  -10.6 °C 11.6 °F /  -11.3 °C 1009.0 in /  34164.7 hPa WSW 2.6 mph /  4.2 km/h 2.6 mph /  4.2 km/h 91 % 0.0 in /  0 mm
00:46 13.0 °F /  -10.6 °C 11.6 °F /  -11.3 °C 1009.0 in /  34164.7 hPa WSW 3.7 mph /  6 km/h 3.7 mph /  6 km/h 91 % 0.0 in /  0 mm
00:51 13.0 °F /  -10.6 °C 11.6 °F /  -11.3 °C 1009.0 in /  34164.7 hPa West 3.7 mph /  6 km/h 3.7 mph /  6 km/h 91 % 0.0 in /  0 mm
00:56 13.0 °F /  -10.6 °C 11.6 °F /  -11.3 °C 1010.0 in /  34198.6 hPa WSW 3.7 mph /  6 km/h   91 % 0.0 in /  0 mm
01:01 12.9 °F /  -10.6 °C 11.4 °F /  -11.4 °C 1010.0 in /  34198.6 hPa Calm     91 % 0.0 in /  0 mm
01:06 12.9 °F /  -10.6 °C 11.6 °F /  -11.3 °C 1010.0 in /  34198.6 hPa Calm     92 % 0.0 in /  0 mm
01:11 12.8 °F /  -10.7 °C 11.6 °F /  -11.3 °C 1010.0 in /  34198.6 hPa Calm     92 % 0.0 in /  0 mm
01:16 12.8 °F /  -10.7 °C 11.6 °F /  -11.3 °C 1010.0 in /  34198.6 hPa Calm     92 % 0.0 in /  0 mm
01:21 12.8 °F /  -10.7 °C 11.6 °F /  -11.3 °C 1010.0 in /  34198.6 hPa WSW 3.7 mph /  6 km/h 3.7 mph /  6 km/h 92 % 0.0 in /  0 mm
01:26 12.8 °F /  -10.7 °C 11.6 °F /  -11.3 °C 1010.0 in /  34198.6 hPa WSW 1.9 mph /  3.1 km/h   92 % 0.0 in /  0 mm
01:31 12.7 °F /  -10.7 °C 11.3 °F /  -11.5 °C 1010.0 in /  34198.6 hPa WSW 3.7 mph /  6 km/h 3.7 mph /  6 km/h 91 % 0.0 in /  0 mm
01:36 12.7 °F /  -10.7 °C 11.3 °F /  -11.5 °C 1010.0 in /  34198.6 hPa WSW 3.7 mph /  6 km/h 3.7 mph /  6 km/h 91 % 0.0 in /  0 mm
01:41 12.7 °F /  -10.7 °C 11.3 °F /  -11.5 °C 1010.0 in /  34198.6 hPa WSW 3.7 mph /  6 km/h 3.7 mph /  6 km/h 91 % 0.0 in /  0 mm
01:46 12.8 °F /  -10.7 °C 11.4 °F /  -11.4 °C 1010.0 in /  34198.6 hPa WSW 1.9 mph /  3.1 km/h 1.9 mph /  3.1 km/h 91 % 0.0 in /  0 mm
01:51 12.8 °F /  -10.7 °C 11.4 °F /  -11.4 °C 1010.0 in /  34198.6 hPa West 3.7 mph /  6 km/h 3.7 mph /  6 km/h 91 % 0.0 in /  0 mm
01:56 12.8 °F /  -10.7 °C 11.4 °F /  -11.4 °C 1010.7 in /  34222.3 hPa WSW 3.7 mph /  6 km/h 3.7 mph /  6 km/h 91 % 0.0 in /  0 mm
02:01 12.8 °F /  -10.7 °C 11.4 °F /  -11.4 °C 1010.7 in /  34222.3 hPa West 3.7 mph /  6 km/h 3.7 mph /  6 km/h 91 % 0.0 in /  0 mm
02:06 12.8 °F /  -10.7 °C 11.4 °F /  -11.4 °C 1010.7 in /  34222.3 hPa Calm     91 % 0.0 in /  0 mm
02:11 12.7 °F /  -10.7 °C 11.4 °F /  -11.4 °C 1010.7 in /  34222.3 hPa WSW 3.7 mph /  6 km/h   92 % 0.0 in /  0 mm
02:16 12.9 °F /  -10.6 °C 11.4 °F /  -11.4 °C 1010.7 in /  34222.3 hPa WSW 7.4 mph /  11.9 km/h 7.4 mph /  11.9 km/h 91 % 0.0 in /  0 mm
02:21 13.0 °F /  -10.6 °C 11.4 °F /  -11.4 °C 1010.7 in /  34222.3 hPa West 5.6 mph /  9 km/h 5.6 mph /  9 km/h 90 % 0.0 in /  0 mm
02:26 13.0 °F /  -10.6 °C 11.4 °F /  -11.4 °C 1010.7 in /  34222.3 hPa West 5.6 mph /  9 km/h 5.6 mph /  9 km/h 90 % 0.0 in /  0 mm
02:31 13.1 °F /  -10.5 °C 11.5 °F /  -11.4 °C 1010.7 in /  34222.3 hPa WSW 5.6 mph /  9 km/h 5.6 mph /  9 km/h 90 % 0.0 in /  0 mm
02:36 13.0 °F /  -10.6 °C 11.4 °F /  -11.4 °C 1010.0 in /  34198.6 hPa WSW 7.4 mph /  11.9 km/h 7.4 mph /  11.9 km/h 90 % 0.0 in /  0 mm
02:41 12.9 °F /  -10.6 °C 11.3 °F /  -11.5 °C 1010.0 in /  34198.6 hPa West 3.7 mph /  6 km/h 3.7 mph /  6 km/h 90 % 0.0 in /  0 mm
02:46 13.0 °F /  -10.6 °C 11.6 °F /  -11.3 °C 1010.0 in /  34198.6 hPa WSW 3.7 mph /  6 km/h 3.7 mph /  6 km/h 91 % 0.0 in /  0 mm
02:51 12.9 °F /  -10.6 °C 11.4 °F /  -11.4 °C 1010.7 in /  34222.3 hPa WSW 3.7 mph /  6 km/h 3.7 mph /  6 km/h 91 % 0.0 in /  0 mm
02:56 12.9 °F /  -10.6 °C 11.4 °F /  -11.4 °C 1010.7 in /  34222.3 hPa SW 3.7 mph /  6 km/h 3.7 mph /  6 km/h 91 % 0.0 in /  0 mm
03:01 12.8 °F /  -10.7 °C 11.4 °F /  -11.4 °C 1010.7 in /  34222.3 hPa SSW 3.7 mph /  6 km/h 3.7 mph /  6 km/h 91 % 0.0 in /  0 mm
03:06 12.8 °F /  -10.7 °C 11.4 °F /  -11.4 °C 1010.7 in /  34222.3 hPa West 3.7 mph /  6 km/h 3.7 mph /  6 km/h 91 % 0.0 in /  0 mm
03:11 12.8 °F /  -10.7 °C 11.4 °F /  -11.4 °C 1010.7 in /  34222.3 hPa West 3.7 mph /  6 km/h 3.7 mph /  6 km/h 91 % 0.0 in /  0 mm
03:16 12.9 °F /  -10.6 °C 11.3 °F /  -11.5 °C 1010.7 in /  34222.3 hPa West 7.4 mph /  11.9 km/h 7.4 mph /  11.9 km/h 90 % 0.0 in /  0 mm
03:21 12.9 °F /  -10.6 °C 11.3 °F /  -11.5 °C 1010.7 in /  34222.3 hPa SW 3.9 mph /  6.3 km/h 3.9 mph /  6.3 km/h 90 % 0.0 in /  0 mm
03:26 12.9 °F /  -10.6 °C 11.3 °F /  -11.5 °C 1010.7 in /  34222.3 hPa SW 5.6 mph /  9 km/h 5.6 mph /  9 km/h 90 % 0.0 in /  0 mm
03:31 13.0 °F /  -10.6 °C 11.4 °F /  -11.4 °C 1010.7 in /  34222.3 hPa WSW 3.7 mph /  6 km/h 3.7 mph /  6 km/h 90 % 0.0 in /  0 mm
03:36 12.9 °F /  -10.6 °C 11.3 °F /  -11.5 °C 1010.7 in /  34222.3 hPa West 3.7 mph /  6 km/h 3.7 mph /  6 km/h 90 % 0.0 in /  0 mm
03:41 12.9 °F /  -10.6 °C 11.3 °F /  -11.5 °C 1010.7 in /  34222.3 hPa WSW 3.9 mph /  6.3 km/h 3.9 mph /  6.3 km/h 90 % 0.0 in /  0 mm
03:46 12.9 °F /  -10.6 °C 11.3 °F /  -11.5 °C 1010.7 in /  34222.3 hPa Calm     90 % 0.0 in /  0 mm
03:51 12.9 °F /  -10.6 °C 11.3 °F /  -11.5 °C 1010.7 in /  34222.3 hPa WSW 1.9 mph /  3.1 km/h   90 % 0.0 in /  0 mm
03:56 12.9 °F /  -10.6 °C 11.3 °F /  -11.5 °C 1010.7 in /  34222.3 hPa SW 2.6 mph /  4.2 km/h   90 % 0.0 in /  0 mm
04:01 12.9 °F /  -10.6 °C 11.1 °F /  -11.6 °C 1010.7 in /  34222.3 hPa SSW 1.9 mph /  3.1 km/h   89 % 0.0 in /  0 mm
04:06 12.9 °F /  -10.6 °C 11.1 °F /  -11.6 °C 1010.7 in /  34222.3 hPa SW 1.9 mph /  3.1 km/h   89 % 0.0 in /  0 mm
04:12 12.9 °F /  -10.6 °C 11.1 °F /  -11.6 °C 1010.7 in /  34222.3 hPa WNW 1.9 mph /  3.1 km/h   89 % 0.0 in /  0 mm
04:19 12.9 °F /  -10.6 °C 11.1 °F /  -11.6 °C 1010.7 in /  34222.3 hPa Calm     89 % 0.0 in /  0 mm
04:20 12.9 °F /  -10.6 °C 11.1 °F /  -11.6 °C 1010.7 in /  34222.3 hPa Calm     89 % 0.0 in /  0 mm
04:21 12.9 °F /  -10.6 °C 11.1 °F /  -11.6 °C 1011.7 in /  34256.2 hPa Calm     89 % 0.0 in /  0 mm
04:24 12.9 °F /  -10.6 °C 11.1 °F /  -11.6 °C 1011.7 in /  34256.2 hPa Calm     89 % 0.0 in /  0 mm
04:26 12.9 °F /  -10.6 °C 11.1 °F /  -11.6 °C 1011.7 in /  34256.2 hPa Calm     89 % 0.0 in /  0 mm
04:30 12.9 °F /  -10.6 °C 10.9 °F /  -11.7 °C 1011.7 in /  34256.2 hPa WSW 1.4 mph /  2.3 km/h   88 % 0.0 in /  0 mm
04:31 12.9 °F /  -10.6 °C 10.9 °F /  -11.7 °C 1011.7 in /  34256.2 hPa WSW 1.9 mph /  3.1 km/h   88 % 0.0 in /  0 mm
04:36 12.9 °F /  -10.6 °C 10.9 °F /  -11.7 °C 1011.7 in /  34256.2 hPa WNW 1.9 mph /  3.1 km/h 1.9 mph /  3.1 km/h 88 % 0.0 in /  0 mm
04:41 12.9 °F /  -10.6 °C 10.9 °F /  -11.7 °C 1011.7 in /  34256.2 hPa SW 1.9 mph /  3.1 km/h   88 % 0.0 in /  0 mm
04:46 12.9 °F /  -10.6 °C 10.9 °F /  -11.7 °C 1011.7 in /  34256.2 hPa WNW 3.7 mph /  6 km/h 3.7 mph /  6 km/h 88 % 0.0 in /  0 mm
04:51 12.8 °F /  -10.7 °C 10.8 °F /  -11.8 °C 1011.7 in /  34256.2 hPa WNW 1.9 mph /  3.1 km/h   88 % 0.0 in /  0 mm
04:56 12.8 °F /  -10.7 °C 10.7 °F /  -11.8 °C 1011.7 in /  34256.2 hPa Calm     87 % 0.0 in /  0 mm
05:01 12.8 °F /  -10.7 °C 10.7 °F /  -11.8 °C 1011.7 in /  34256.2 hPa WNW 1.9 mph /  3.1 km/h   87 % 0.0 in /  0 mm
05:06 12.7 °F /  -10.7 °C 10.6 °F /  -11.9 °C 1011.7 in /  34256.2 hPa Calm     87 % 0.0 in /  0 mm
05:11 12.7 °F /  -10.7 °C 10.6 °F /  -11.9 °C 1011.7 in /  34256.2 hPa Calm     87 % 0.0 in /  0 mm
05:16 12.7 °F /  -10.7 °C 10.6 °F /  -11.9 °C 1011.7 in /  34256.2 hPa WNW 2.3 mph /  3.7 km/h 2.3 mph /  3.7 km/h 87 % 0.0 in /  0 mm
05:21 12.7 °F /  -10.7 °C 10.4 °F /  -12 °C 1011.7 in /  34256.2 hPa NW 2.6 mph /  4.2 km/h   86 % 0.0 in /  0 mm
05:26 12.7 °F /  -10.7 °C 10.4 °F /  -12 °C 1011.7 in /  34256.2 hPa Calm     86 % 0.0 in /  0 mm
05:31 12.6 °F /  -10.8 °C 10.5 °F /  -11.9 °C 1011.7 in /  34256.2 hPa Calm     87 % 0.0 in /  0 mm
05:36 12.6 °F /  -10.8 °C 10.5 °F /  -11.9 °C 1011.7 in /  34256.2 hPa Calm     87 % 0.0 in /  0 mm
05:41 12.7 °F /  -10.7 °C 10.6 °F /  -11.9 °C 1011.7 in /  34256.2 hPa Calm     87 % 0.0 in /  0 mm
05:46 12.7 °F /  -10.7 °C 10.4 °F /  -12 °C 1011.7 in /  34256.2 hPa ENE 3.7 mph /  6 km/h 3.7 mph /  6 km/h 86 % 0.0 in /  0 mm
05:51 12.6 °F /  -10.8 °C 10.3 °F /  -12.1 °C 1011.7 in /  34256.2 hPa Calm     86 % 0.0 in /  0 mm
05:56 12.5 °F /  -10.8 °C 10.4 °F /  -12 °C 1011.7 in /  34256.2 hPa NE 7.4 mph /  11.9 km/h 7.4 mph /  11.9 km/h 87 % 0.0 in /  0 mm
06:01 12.6 °F /  -10.8 °C 10.5 °F /  -11.9 °C 1011.7 in /  34256.2 hPa NNE 3.7 mph /  6 km/h   87 % 0.0 in /  0 mm
06:06 12.6 °F /  -10.8 °C 10.5 °F /  -11.9 °C 1012.8 in /  34293.4 hPa North 7.4 mph /  11.9 km/h 7.4 mph /  11.9 km/h 87 % 0.0 in /  0 mm
06:11 12.6 °F /  -10.8 °C 10.5 °F /  -11.9 °C 1012.8 in /  34293.4 hPa North 1.9 mph /  3.1 km/h   87 % 0.0 in /  0 mm
06:16 12.5 °F /  -10.8 °C 10.4 °F /  -12 °C 1012.8 in /  34293.4 hPa Calm     87 % 0.0 in /  0 mm
06:21 12.4 °F /  -10.9 °C 10.3 °F /  -12.1 °C 1012.8 in /  34293.4 hPa Calm     87 % 0.0 in /  0 mm
06:26 12.3 °F /  -10.9 °C 10.2 °F /  -12.1 °C 1012.8 in /  34293.4 hPa NW 1.9 mph /  3.1 km/h   87 % 0.0 in /  0 mm
06:31 12.3 °F /  -10.9 °C 10.2 °F /  -12.1 °C 1012.8 in /  34293.4 hPa NW 3.7 mph /  6 km/h 3.7 mph /  6 km/h 87 % 0.0 in /  0 mm
06:36 12.3 °F /  -10.9 °C 10.2 °F /  -12.1 °C 1013.8 in /  34327.3 hPa Calm     87 % 0.0 in /  0 mm
06:41 12.3 °F /  -10.9 °C 10.2 °F /  -12.1 °C 1013.8 in /  34327.3 hPa West 3.7 mph /  6 km/h 3.7 mph /  6 km/h 87 % 0.0 in /  0 mm
06:47 12.3 °F /  -10.9 °C 10.2 °F /  -12.1 °C 1013.8 in /  34327.3 hPa WSW 5.0 mph /  8 km/h 5.0 mph /  8 km/h 87 % 0.0 in /  0 mm
06:52 12.2 °F /  -11 °C 10.1 °F /  -12.2 °C 1013.8 in /  34327.3 hPa West 7.4 mph /  11.9 km/h 7.4 mph /  11.9 km/h 87 % 0.0 in /  0 mm
06:57 12.2 °F /  -11 °C 10.1 °F /  -12.2 °C 1013.8 in /  34327.3 hPa Calm     87 % 0.0 in /  0 mm
07:02 12.1 °F /  -11.1 °C 10.0 °F /  -12.2 °C 1013.8 in /  34327.3 hPa Calm     87 % 0.0 in /  0 mm
07:07 12.1 °F /  -11.1 °C 10.0 °F /  -12.2 °C 1013.8 in /  34327.3 hPa NNE 1.9 mph /  3.1 km/h   87 % 0.0 in /  0 mm
07:12 12.2 °F /  -11 °C 10.1 °F /  -12.2 °C 1013.8 in /  34327.3 hPa West 6.9 mph /  11.1 km/h 6.9 mph /  11.1 km/h 87 % 0.0 in /  0 mm
07:17 12.3 °F /  -10.9 °C 10.0 °F /  -12.2 °C 1013.8 in /  34327.3 hPa WSW 3.7 mph /  6 km/h 3.7 mph /  6 km/h 86 % 0.0 in /  0 mm
07:22 12.3 °F /  -10.9 °C 9.8 °F /  -12.3 °C 1013.8 in /  34327.3 hPa SW 7.4 mph /  11.9 km/h   85 % 0.0 in /  0 mm
07:27 12.3 °F /  -10.9 °C 9.8 °F /  -12.3 °C 1013.8 in /  34327.3 hPa NNW 5.8 mph /  9.3 km/h 5.8 mph /  9.3 km/h 85 % 0.0 in /  0 mm
07:32 12.3 °F /  -10.9 °C 9.8 °F /  -12.3 °C 1013.8 in /  34327.3 hPa NE 1.9 mph /  3.1 km/h   85 % 0.0 in /  0 mm
07:37 12.4 °F /  -10.9 °C 9.9 °F /  -12.3 °C 1012.8 in /  34293.4 hPa SW 3.7 mph /  6 km/h 3.7 mph /  6 km/h 85 % 0.0 in /  0 mm
07:42 12.4 °F /  -10.9 °C 9.9 °F /  -12.3 °C 1012.8 in /  34293.4 hPa ENE 5.6 mph /  9 km/h 5.6 mph /  9 km/h 85 % 0.0 in /  0 mm
07:47 12.3 °F /  -10.9 °C 9.8 °F /  -12.3 °C 1012.8 in /  34293.4 hPa WNW 4.7 mph /  7.6 km/h 4.7 mph /  7.6 km/h 85 % 0.0 in /  0 mm
07:52 12.3 °F /  -10.9 °C 9.8 °F /  -12.3 °C 1013.8 in /  34327.3 hPa South 2.3 mph /  3.7 km/h   85 % 0.0 in /  0 mm
07:57 12.2 °F /  -11 °C 9.8 °F /  -12.3 °C 1013.8 in /  34327.3 hPa WNW 3.7 mph /  6 km/h 3.7 mph /  6 km/h 85 % 0.0 in /  0 mm
08:02 12.2 °F /  -11 °C 9.8 °F /  -12.3 °C 1013.8 in /  34327.3 hPa NW 1.9 mph /  3.1 km/h   85 % 0.0 in /  0 mm
08:07 12.1 °F /  -11.1 °C 9.7 °F /  -12.4 °C 1013.8 in /  34327.3 hPa NNW 3.7 mph /  6 km/h 3.7 mph /  6 km/h 85 % 0.0 in /  0 mm
08:12 12.2 °F /  -11 °C 9.8 °F /  -12.3 °C 1013.8 in /  34327.3 hPa West 5.6 mph /  9 km/h 5.6 mph /  9 km/h 85 % 0.0 in /  0 mm
08:17 12.2 °F /  -11 °C 9.6 °F /  -12.4 °C 1013.8 in /  34327.3 hPa SSW 5.6 mph /  9 km/h 5.6 mph /  9 km/h 84 % 0.0 in /  0 mm
08:22 12.2 °F /  -11 °C 9.6 °F /  -12.4 °C 1014.8 in /  34361.1 hPa West 5.6 mph /  9 km/h 5.6 mph /  9 km/h 84 % 0.0 in /  0 mm
08:27 12.2 °F /  -11 °C 9.6 °F /  -12.4 °C 1014.8 in /  34361.1 hPa WNW 5.6 mph /  9 km/h 5.6 mph /  9 km/h 84 % 0.0 in /  0 mm
08:32 12.2 °F /  -11 °C 9.6 °F /  -12.4 °C 1014.8 in /  34361.1 hPa West 4.7 mph /  7.6 km/h 4.7 mph /  7.6 km/h 84 % 0.0 in /  0 mm
08:37 12.3 °F /  -10.9 °C 9.7 °F /  -12.4 °C 1014.8 in /  34361.1 hPa WSW 5.6 mph /  9 km/h 5.6 mph /  9 km/h 84 % 0.0 in /  0 mm
08:42 12.3 °F /  -10.9 °C 9.5 °F /  -12.5 °C 1014.8 in /  34361.1 hPa Calm     83 % 0.0 in /  0 mm
08:47 12.3 °F /  -10.9 °C 9.5 °F /  -12.5 °C 1014.8 in /  34361.1 hPa NNE 3.2 mph /  5.1 km/h 3.2 mph /  5.1 km/h 83 % 0.0 in /  0 mm
08:52 12.5 °F /  -10.8 °C 9.7 °F /  -12.4 °C 1014.8 in /  34361.1 hPa ENE 2.6 mph /  4.2 km/h 2.6 mph /  4.2 km/h 83 % 0.0 in /  0 mm
08:57 12.8 °F /  -10.7 °C 10.2 °F /  -12.1 °C 1014.8 in /  34361.1 hPa North 3.7 mph /  6 km/h   84 % 0.0 in /  0 mm
09:02 12.9 °F /  -10.6 °C 10.3 °F /  -12.1 °C 1014.8 in /  34361.1 hPa WSW 1.9 mph /  3.1 km/h 1.9 mph /  3.1 km/h 84 % 0.0 in /  0 mm
09:07 13.5 °F /  -10.3 °C 10.8 °F /  -11.8 °C 1014.8 in /  34361.1 hPa NW 3.7 mph /  6 km/h 3.7 mph /  6 km/h 84 % 0.0 in /  0 mm
09:12 14.0 °F /  -10 °C 11.3 °F /  -11.5 °C 1014.8 in /  34361.1 hPa North 2.6 mph /  4.2 km/h 2.6 mph /  4.2 km/h 84 % 0.0 in /  0 mm
09:17 14.3 °F /  -9.8 °C 11.4 °F /  -11.4 °C 1014.8 in /  34361.1 hPa SSW 1.9 mph /  3.1 km/h   83 % 0.0 in /  0 mm
09:22 14.2 °F /  -9.9 °C 11.3 °F /  -11.5 °C 1014.8 in /  34361.1 hPa West 4.7 mph /  7.6 km/h 4.7 mph /  7.6 km/h 83 % 0.0 in /  0 mm
09:27 14.5 °F /  -9.7 °C 11.4 °F /  -11.4 °C 1014.8 in /  34361.1 hPa WSW 5.0 mph /  8 km/h   82 % 0.0 in /  0 mm
09:32 14.3 °F /  -9.8 °C 11.3 °F /  -11.5 °C 1014.8 in /  34361.1 hPa ENE 11.1 mph /  17.9 km/h 11.1 mph /  17.9 km/h 82 % 0.0 in /  0 mm
09:37 14.6 °F /  -9.7 °C 11.4 °F /  -11.4 °C 1015.8 in /  34395 hPa WSW 5.6 mph /  9 km/h 5.6 mph /  9 km/h 81 % 0.0 in /  0 mm
09:42 14.6 °F /  -9.7 °C 11.2 °F /  -11.6 °C 1015.8 in /  34395 hPa SW 7.4 mph /  11.9 km/h 7.4 mph /  11.9 km/h 80 % 0.0 in /  0 mm
09:47 14.6 °F /  -9.7 °C 11.2 °F /  -11.6 °C 1015.8 in /  34395 hPa West 5.6 mph /  9 km/h 5.6 mph /  9 km/h 80 % 0.0 in /  0 mm
09:52 14.5 °F /  -9.7 °C 10.9 °F /  -11.7 °C 1015.8 in /  34395 hPa WSW 9.3 mph /  15 km/h 9.3 mph /  15 km/h 79 % 0.0 in /  0 mm
09:57 14.6 °F /  -9.7 °C 10.8 °F /  -11.8 °C 1015.8 in /  34395 hPa West 9.3 mph /  15 km/h 9.3 mph /  15 km/h 78 % 0.0 in /  0 mm
10:02 15.0 °F /  -9.4 °C 11.2 °F /  -11.6 °C 1015.8 in /  34395 hPa WSW 6.4 mph /  10.3 km/h 6.4 mph /  10.3 km/h 78 % 0.0 in /  0 mm
10:07 14.8 °F /  -9.6 °C 10.8 °F /  -11.8 °C 1015.8 in /  34395 hPa West 13.0 mph /  20.9 km/h 13.0 mph /  20.9 km/h 77 % 0.0 in /  0 mm
10:12 15.0 °F /  -9.4 °C 10.8 °F /  -11.8 °C 1015.8 in /  34395 hPa West 7.4 mph /  11.9 km/h 7.4 mph /  11.9 km/h 76 % 0.0 in /  0 mm
10:17 15.2 °F /  -9.3 °C 11.0 °F /  -11.7 °C 1015.8 in /  34395 hPa WSW 7.4 mph /  11.9 km/h 7.4 mph /  11.9 km/h 76 % 0.0 in /  0 mm
10:22 15.6 °F /  -9.1 °C 11.4 °F /  -11.4 °C 1014.8 in /  34361.1 hPa West 6.1 mph /  9.8 km/h 6.1 mph /  9.8 km/h 76 % 0.0 in /  0 mm
10:27 15.6 °F /  -9.1 °C 11.4 °F /  -11.4 °C 1014.8 in /  34361.1 hPa WSW 13.0 mph /  20.9 km/h 13.0 mph /  20.9 km/h 76 % 0.0 in /  0 mm
10:32 16.1 °F /  -8.8 °C 11.7 °F /  -11.3 °C 1014.8 in /  34361.1 hPa SSE 3.9 mph /  6.3 km/h 3.9 mph /  6.3 km/h 75 % 0.0 in /  0 mm
10:37 16.1 °F /  -8.8 °C 11.4 °F /  -11.4 °C 1014.8 in /  34361.1 hPa NW 7.4 mph /  11.9 km/h 7.4 mph /  11.9 km/h 74 % 0.0 in /  0 mm
10:42 16.0 °F /  -8.9 °C 11.4 °F /  -11.4 °C 1014.8 in /  34361.1 hPa West 13.0 mph /  20.9 km/h 13.0 mph /  20.9 km/h 74 % 0.0 in /  0 mm
10:47 16.1 °F /  -8.8 °C 11.1 °F /  -11.6 °C 1014.8 in /  34361.1 hPa SW 11.1 mph /  17.9 km/h 11.1 mph /  17.9 km/h 72 % 0.0 in /  0 mm
10:52 16.0 °F /  -8.9 °C 10.9 °F /  -11.7 °C 1014.8 in /  34361.1 hPa WSW 9.3 mph /  15 km/h 9.3 mph /  15 km/h 72 % 0.0 in /  0 mm
10:57 16.0 °F /  -8.9 °C 10.6 °F /  -11.9 °C 1014.8 in /  34361.1 hPa West 9.3 mph /  15 km/h 9.3 mph /  15 km/h 70 % 0.0 in /  0 mm
11:02 16.1 °F /  -8.8 °C 10.8 °F /  -11.8 °C 1014.8 in /  34361.1 hPa WSW 9.3 mph /  15 km/h 9.3 mph /  15 km/h 71 % 0.0 in /  0 mm
11:07 16.1 °F /  -8.8 °C 10.6 °F /  -11.9 °C 1014.8 in /  34361.1 hPa WSW 9.3 mph /  15 km/h 9.3 mph /  15 km/h 70 % 0.0 in /  0 mm
11:12 16.2 °F /  -8.8 °C 10.5 °F /  -11.9 °C 1014.8 in /  34361.1 hPa SW 5.6 mph /  9 km/h 5.6 mph /  9 km/h 69 % 0.0 in /  0 mm
11:17 16.6 °F /  -8.6 °C 10.9 °F /  -11.7 °C 1014.8 in /  34361.1 hPa WSW 7.4 mph /  11.9 km/h 7.4 mph /  11.9 km/h 69 % 0.0 in /  0 mm
11:22 16.7 °F /  -8.5 °C 11.2 °F /  -11.6 °C 1014.8 in /  34361.1 hPa SW 13.0 mph /  20.9 km/h 13.0 mph /  20.9 km/h 70 % 0.0 in /  0 mm
11:27 16.7 °F /  -8.5 °C 10.8 °F /  -11.8 °C 1014.8 in /  34361.1 hPa WSW 9.3 mph /  15 km/h 9.3 mph /  15 km/h 68 % 0.0 in /  0 mm
11:32 17.0 °F /  -8.3 °C 10.8 °F /  -11.8 °C 1014.8 in /  34361.1 hPa SW 6.9 mph /  11.1 km/h 6.9 mph /  11.1 km/h 67 % 0.0 in /  0 mm
11:37 17.1 °F /  -8.3 °C 10.7 °F /  -11.8 °C 1014.8 in /  34361.1 hPa NNE 3.7 mph /  6 km/h 3.7 mph /  6 km/h 66 % 0.0 in /  0 mm
11:42 17.4 °F /  -8.1 °C 11.0 °F /  -11.7 °C 1014.8 in /  34361.1 hPa NNE 7.4 mph /  11.9 km/h 7.4 mph /  11.9 km/h 66 % 0.0 in /  0 mm
11:47 17.3 °F /  -8.2 °C 10.7 °F /  -11.8 °C 1014.8 in /  34361.1 hPa West 5.6 mph /  9 km/h 5.6 mph /  9 km/h 65 % 0.0 in /  0 mm
11:52 17.5 °F /  -8.1 °C 10.6 °F /  -11.9 °C 1014.8 in /  34361.1 hPa NNE 5.6 mph /  9 km/h 5.8 mph /  9.3 km/h 64 % 0.0 in /  0 mm
11:57 17.5 °F /  -8.1 °C 10.4 °F /  -12 °C 1014.8 in /  34361.1 hPa SSW 9.3 mph /  15 km/h 9.3 mph /  15 km/h 63 % 0.0 in /  0 mm
12:02 17.6 °F /  -8 °C 10.4 °F /  -12 °C 1014.8 in /  34361.1 hPa NNW 5.6 mph /  9 km/h 5.6 mph /  9 km/h 63 % 0.0 in /  0 mm
12:07 17.9 °F /  -7.8 °C 10.8 °F /  -11.8 °C 1014.8 in /  34361.1 hPa SE 8.7 mph /  14 km/h 8.7 mph /  14 km/h 63 % 0.0 in /  0 mm
12:12 17.8 °F /  -7.9 °C 10.4 °F /  -12 °C 1014.8 in /  34361.1 hPa WSW 13.0 mph /  20.9 km/h 13.0 mph /  20.9 km/h 62 % 0.0 in /  0 mm
12:17 17.5 °F /  -8.1 °C 9.7 °F /  -12.4 °C 1014.8 in /  34361.1 hPa West 18.5 mph /  29.8 km/h 18.5 mph /  29.8 km/h 60 % 0.0 in /  0 mm
12:22 17.6 °F /  -8 °C 9.7 °F /  -12.4 °C 1014.8 in /  34361.1 hPa SW 12.6 mph /  20.3 km/h 12.6 mph /  20.3 km/h 60 % 0.0 in /  0 mm
12:27 17.9 °F /  -7.8 °C 9.8 °F /  -12.3 °C 1014.8 in /  34361.1 hPa NNE 4.2 mph /  6.8 km/h 5.0 mph /  8 km/h 59 % 0.0 in /  0 mm
12:32 17.8 °F /  -7.9 °C 9.7 °F /  -12.4 °C 1014.8 in /  34361.1 hPa West 13.0 mph /  20.9 km/h 13.0 mph /  20.9 km/h 59 % 0.0 in /  0 mm
12:37 17.8 °F /  -7.9 °C 9.7 °F /  -12.4 °C 1014.8 in /  34361.1 hPa WSW 9.3 mph /  15 km/h 10.8 mph /  17.4 km/h 59 % 0.0 in /  0 mm
12:42 17.5 °F /  -8.1 °C 8.9 °F /  -12.8 °C 1014.8 in /  34361.1 hPa SW 13.0 mph /  20.9 km/h 13.0 mph /  20.9 km/h 57 % 0.0 in /  0 mm
12:47 17.6 °F /  -8 °C 9.0 °F /  -12.8 °C 1014.8 in /  34361.1 hPa NW 13.0 mph /  20.9 km/h 13.0 mph /  20.9 km/h 57 % 0.0 in /  0 mm
12:52 17.8 °F /  -7.9 °C 9.4 °F /  -12.6 °C 1013.8 in /  34327.3 hPa West 9.3 mph /  15 km/h 9.3 mph /  15 km/h 58 % 0.0 in /  0 mm
12:57 17.9 °F /  -7.8 °C 9.3 °F /  -12.6 °C 1013.8 in /  34327.3 hPa West 13.0 mph /  20.9 km/h 13.0 mph /  20.9 km/h 57 % 0.0 in /  0 mm
13:02 17.9 °F /  -7.8 °C 9.0 °F /  -12.8 °C 1013.8 in /  34327.3 hPa WSW 11.1 mph /  17.9 km/h 11.1 mph /  17.9 km/h 56 % 0.0 in /  0 mm
13:07 18.0 °F /  -7.8 °C 9.1 °F /  -12.7 °C 1013.8 in /  34327.3 hPa NNW 10.3 mph /  16.6 km/h 11.9 mph /  19.2 km/h 56 % 0.0 in /  0 mm
13:12 18.0 °F /  -7.8 °C 9.1 °F /  -12.7 °C 1013.8 in /  34327.3 hPa SSE 18.5 mph /  29.8 km/h 18.5 mph /  29.8 km/h 56 % 0.0 in /  0 mm
13:17 18.0 °F /  -7.8 °C 9.1 °F /  -12.7 °C 1013.8 in /  34327.3 hPa WSW 16.7 mph /  26.9 km/h 16.7 mph /  26.9 km/h 56 % 0.0 in /  0 mm
13:22 18.0 °F /  -7.8 °C 8.8 °F /  -12.9 °C 1013.8 in /  34327.3 hPa West 11.1 mph /  17.9 km/h 11.1 mph /  17.9 km/h 55 % 0.0 in /  0 mm
13:28 18.1 °F /  -7.7 °C 8.9 °F /  -12.8 °C 1013.8 in /  34327.3 hPa NNW 13.0 mph /  20.9 km/h 13.0 mph /  20.9 km/h 55 % 0.0 in /  0 mm
13:33 17.9 °F /  -7.8 °C 8.4 °F /  -13.1 °C 1013.8 in /  34327.3 hPa SSW 18.5 mph /  29.8 km/h 18.5 mph /  29.8 km/h 54 % 0.0 in /  0 mm
13:38 17.9 °F /  -7.8 °C 8.4 °F /  -13.1 °C 1014.8 in /  34361.1 hPa SSW 14.8 mph /  23.8 km/h 14.8 mph /  23.8 km/h 54 % 0.0 in /  0 mm
13:43 17.8 °F /  -7.9 °C 8.4 °F /  -13.1 °C 1014.8 in /  34361.1 hPa SW 20.4 mph /  32.8 km/h 20.4 mph /  32.8 km/h 54 % 0.0 in /  0 mm
13:48 17.9 °F /  -7.8 °C 8.4 °F /  -13.1 °C 1014.8 in /  34361.1 hPa West 9.3 mph /  15 km/h 9.3 mph /  15 km/h 54 % 0.0 in /  0 mm
13:53 18.1 °F /  -7.7 °C 8.7 °F /  -12.9 °C 1014.8 in /  34361.1 hPa West 13.0 mph /  20.9 km/h 13.0 mph /  20.9 km/h 54 % 0.0 in /  0 mm
13:58 18.3 °F /  -7.6 °C 8.8 °F /  -12.9 °C 1014.8 in /  34361.1 hPa WNW 9.3 mph /  15 km/h 9.3 mph /  15 km/h 54 % 0.0 in /  0 mm
14:03 18.3 °F /  -7.6 °C 8.8 °F /  -12.9 °C 1014.8 in /  34361.1 hPa WNW 13.0 mph /  20.9 km/h 13.0 mph /  20.9 km/h 54 % 0.0 in /  0 mm
14:08 18.2 °F /  -7.7 °C 8.7 °F /  -12.9 °C 1014.8 in /  34361.1 hPa South 13.0 mph /  20.9 km/h 13.0 mph /  20.9 km/h 54 % 0.0 in /  0 mm
14:13 18.0 °F /  -7.8 °C 8.3 °F /  -13.2 °C 1014.8 in /  34361.1 hPa WSW 13.0 mph /  20.9 km/h 13.0 mph /  20.9 km/h 53 % 0.0 in /  0 mm
14:18 18.3 °F /  -7.6 °C 8.8 °F /  -12.9 °C 1014.8 in /  34361.1 hPa WSW 7.4 mph /  11.9 km/h 7.4 mph /  11.9 km/h 54 % 0.0 in /  0 mm
14:25 18.6 °F /  -7.4 °C 9.1 °F /  -12.7 °C 1013.8 in /  34327.3 hPa WSW 9.3 mph /  15 km/h 9.3 mph /  15 km/h 54 % 0.0 in /  0 mm
14:30 18.6 °F /  -7.4 °C 9.1 °F /  -12.7 °C 1013.8 in /  34327.3 hPa WNW 9.3 mph /  15 km/h 9.3 mph /  15 km/h 54 % 0.0 in /  0 mm
14:35 18.6 °F /  -7.4 °C 8.8 °F /  -12.9 °C 1013.8 in /  34327.3 hPa West 9.5 mph /  15.3 km/h 9.5 mph /  15.3 km/h 53 % 0.0 in /  0 mm
14:40 18.4 °F /  -7.6 °C 8.4 °F /  -13.1 °C 1014.8 in /  34361.1 hPa West 16.7 mph /  26.9 km/h 16.7 mph /  26.9 km/h 52 % 0.0 in /  0 mm
14:45 18.4 °F /  -7.6 °C 8.4 °F /  -13.1 °C 1014.8 in /  34361.1 hPa SW 9.3 mph /  15 km/h 9.3 mph /  15 km/h 52 % 0.0 in /  0 mm
14:50 18.7 °F /  -7.4 °C 8.9 °F /  -12.8 °C 1014.8 in /  34361.1 hPa West 7.4 mph /  11.9 km/h 7.4 mph /  11.9 km/h 53 % 0.0 in /  0 mm
14:55 18.7 °F /  -7.4 °C 8.6 °F /  -13 °C 1014.8 in /  34361.1 hPa West 13.0 mph /  20.9 km/h 13.0 mph /  20.9 km/h 52 % 0.0 in /  0 mm
15:00 18.6 °F /  -7.4 °C 8.3 °F /  -13.2 °C 1014.8 in /  34361.1 hPa WSW 13.0 mph /  20.9 km/h 13.0 mph /  20.9 km/h 51 % 0.0 in /  0 mm
15:05 18.6 °F /  -7.4 °C 8.3 °F /  -13.2 °C 1014.8 in /  34361.1 hPa WSW 11.1 mph /  17.9 km/h 11.1 mph /  17.9 km/h 51 % 0.0 in /  0 mm
15:10 18.6 °F /  -7.4 °C 8.3 °F /  -13.2 °C 1014.8 in /  34361.1 hPa West 9.3 mph /  15 km/h 9.3 mph /  15 km/h 51 % 0.0 in /  0 mm
15:15 18.8 °F /  -7.3 °C 8.4 °F /  -13.1 °C 1014.8 in /  34361.1 hPa WSW 11.1 mph /  17.9 km/h 11.1 mph /  17.9 km/h 51 % 0.0 in /  0 mm
15:20 18.9 °F /  -7.3 °C 8.6 °F /  -13 °C 1014.8 in /  34361.1 hPa West 9.3 mph /  15 km/h 9.3 mph /  15 km/h 51 % 0.0 in /  0 mm
15:25 19.0 °F /  -7.2 °C 8.3 °F /  -13.2 °C 1014.8 in /  34361.1 hPa SW 13.7 mph /  22 km/h 13.7 mph /  22 km/h 50 % 0.0 in /  0 mm
15:30 19.1 °F /  -7.2 °C 8.4 °F /  -13.1 °C 1014.8 in /  34361.1 hPa NW 7.4 mph /  11.9 km/h 7.4 mph /  11.9 km/h 50 % 0.0 in /  0 mm
15:35 19.0 °F /  -7.2 °C 8.3 °F /  -13.2 °C 1014.8 in /  34361.1 hPa WSW 7.4 mph /  11.9 km/h 7.4 mph /  11.9 km/h 50 % 0.0 in /  0 mm
15:40 19.1 °F /  -7.2 °C 8.4 °F /  -13.1 °C 1013.8 in /  34327.3 hPa WSW 5.6 mph /  9 km/h 5.6 mph /  9 km/h 50 % 0.0 in /  0 mm
15:45 19.0 °F /  -7.2 °C 8.1 °F /  -13.3 °C 1013.8 in /  34327.3 hPa WSW 9.3 mph /  15 km/h 9.5 mph /  15.3 km/h 49 % 0.0 in /  0 mm
15:50 18.8 °F /  -7.3 °C 8.2 °F /  -13.2 °C 1013.8 in /  34327.3 hPa NW 7.4 mph /  11.9 km/h 7.4 mph /  11.9 km/h 50 % 0.0 in /  0 mm
15:55 18.8 °F /  -7.3 °C 8.2 °F /  -13.2 °C 1014.8 in /  34361.1 hPa WSW 9.3 mph /  15 km/h 9.3 mph /  15 km/h 50 % 0.0 in /  0 mm
16:00 18.7 °F /  -7.4 °C 7.8 °F /  -13.4 °C 1014.8 in /  34361.1 hPa SW 11.1 mph /  17.9 km/h 11.1 mph /  17.9 km/h 49 % 0.0 in /  0 mm
16:05 18.7 °F /  -7.4 °C 8.1 °F /  -13.3 °C 1014.8 in /  34361.1 hPa SW 12.2 mph /  19.6 km/h 12.2 mph /  19.6 km/h 50 % 0.0 in /  0 mm
16:10 18.5 °F /  -7.5 °C 7.6 °F /  -13.6 °C 1013.8 in /  34327.3 hPa WSW 13.0 mph /  20.9 km/h 13.0 mph /  20.9 km/h 49 % 0.0 in /  0 mm
16:15 18.4 °F /  -7.6 °C 7.5 °F /  -13.6 °C 1013.8 in /  34327.3 hPa WNW 7.4 mph /  11.9 km/h 7.4 mph /  11.9 km/h 49 % 0.0 in /  0 mm
16:20 18.4 °F /  -7.6 °C 7.5 °F /  -13.6 °C 1013.8 in /  34327.3 hPa WSW 5.6 mph /  9 km/h 6.9 mph /  11.1 km/h 49 % 0.0 in /  0 mm
16:25 18.3 °F /  -7.6 °C 7.1 °F /  -13.8 °C 1013.8 in /  34327.3 hPa West 16.7 mph /  26.9 km/h 16.7 mph /  26.9 km/h 48 % 0.0 in /  0 mm
16:30 18.3 °F /  -7.6 °C 7.4 °F /  -13.7 °C 1013.8 in /  34327.3 hPa West 11.1 mph /  17.9 km/h 11.1 mph /  17.9 km/h 49 % 0.0 in /  0 mm
16:35 18.2 °F /  -7.7 °C 7.0 °F /  -13.9 °C 1013.8 in /  34327.3 hPa WSW 7.4 mph /  11.9 km/h 7.4 mph /  11.9 km/h 48 % 0.0 in /  0 mm
16:40 18.1 °F /  -7.7 °C 6.9 °F /  -13.9 °C 1013.8 in /  34327.3 hPa WSW 9.3 mph /  15 km/h 9.3 mph /  15 km/h 48 % 0.0 in /  0 mm
16:41 18.1 °F /  -7.7 °C 6.9 °F /  -13.9 °C 1013.8 in /  34327.3 hPa WSW 7.4 mph /  11.9 km/h 7.4 mph /  11.9 km/h 48 % 0.0 in /  0 mm
16:46 18.0 °F /  -7.8 °C 6.8 °F /  -14 °C 1013.8 in /  34327.3 hPa West 13.0 mph /  20.9 km/h 13.0 mph /  20.9 km/h 48 % 0.0 in /  0 mm
16:51 17.8 °F /  -7.9 °C 6.6 °F /  -14.1 °C 1013.8 in /  34327.3 hPa WSW 7.4 mph /  11.9 km/h 7.4 mph /  11.9 km/h 48 % 0.0 in /  0 mm
16:56 17.6 °F /  -8 °C 6.4 °F /  -14.2 °C 1013.8 in /  34327.3 hPa SW 7.4 mph /  11.9 km/h 7.4 mph /  11.9 km/h 48 % 0.0 in /  0 mm
17:01 17.5 °F /  -8.1 °C 6.3 °F /  -14.3 °C 1013.8 in /  34327.3 hPa WSW 9.3 mph /  15 km/h 9.3 mph /  15 km/h 48 % 0.0 in /  0 mm
17:06 17.3 °F /  -8.2 °C 6.2 °F /  -14.3 °C 1014.8 in /  34361.1 hPa WSW 7.4 mph /  11.9 km/h 7.4 mph /  11.9 km/h 48 % 0.0 in /  0 mm
17:07 17.2 °F /  -8.2 °C 6.1 °F /  -14.4 °C 1014.8 in /  34361.1 hPa SSW 7.4 mph /  11.9 km/h 7.4 mph /  11.9 km/h 48 % 0.0 in /  0 mm
17:12 17.0 °F /  -8.3 °C 5.9 °F /  -14.5 °C 1014.8 in /  34361.1 hPa SW 9.3 mph /  15 km/h 9.3 mph /  15 km/h 48 % 0.0 in /  0 mm
17:17 16.7 °F /  -8.5 °C 5.9 °F /  -14.5 °C 1014.8 in /  34361.1 hPa WNW 9.3 mph /  15 km/h 9.5 mph /  15.3 km/h 49 % 0.0 in /  0 mm
17:22 16.5 °F /  -8.6 °C 5.7 °F /  -14.6 °C 1014.8 in /  34361.1 hPa West 6.1 mph /  9.8 km/h 6.1 mph /  9.8 km/h 49 % 0.0 in /  0 mm
17:27 16.4 °F /  -8.7 °C 5.7 °F /  -14.6 °C 1014.8 in /  34361.1 hPa SW 5.6 mph /  9 km/h 5.6 mph /  9 km/h 49 % 0.0 in /  0 mm
17:32 16.2 °F /  -8.8 °C 5.4 °F /  -14.8 °C 1014.8 in /  34361.1 hPa West 5.6 mph /  9 km/h 5.6 mph /  9 km/h 49 % 0.0 in /  0 mm
17:37 16.0 °F /  -8.9 °C 5.3 °F /  -14.8 °C 1014.8 in /  34361.1 hPa WNW 3.7 mph /  6 km/h 3.7 mph /  6 km/h 49 % 0.0 in /  0 mm
17:42 15.8 °F /  -9 °C 5.4 °F /  -14.8 °C 1014.8 in /  34361.1 hPa West 7.4 mph /  11.9 km/h 7.4 mph /  11.9 km/h 50 % 0.0 in /  0 mm
17:47 15.7 °F /  -9.1 °C 5.0 °F /  -15 °C 1014.8 in /  34361.1 hPa WSW 9.3 mph /  15 km/h 9.3 mph /  15 km/h 49 % 0.0 in /  0 mm
17:52 15.6 °F /  -9.1 °C 5.2 °F /  -14.9 °C 1014.8 in /  34361.1 hPa SW 9.5 mph /  15.3 km/h 9.5 mph /  15.3 km/h 50 % 0.0 in /  0 mm
17:57 15.5 °F /  -9.2 °C 5.1 °F /  -14.9 °C 1014.8 in /  34361.1 hPa West 5.3 mph /  8.5 km/h 5.3 mph /  8.5 km/h 50 % 0.0 in /  0 mm
18:02 15.5 °F /  -9.2 °C 5.1 °F /  -14.9 °C 1014.8 in /  34361.1 hPa WNW 7.4 mph /  11.9 km/h 7.4 mph /  11.9 km/h 50 % 0.0 in /  0 mm
18:07 15.5 °F /  -9.2 °C 5.1 °F /  -14.9 °C 1014.8 in /  34361.1 hPa West 9.3 mph /  15 km/h 9.3 mph /  15 km/h 50 % 0.0 in /  0 mm
18:10 9.7 °F /  -12.4 °C 1.8 °F /  -16.8 °C 1016.8 in /  34428.8 hPa West 4.8 mph /  7.7 km/h 9.7 mph /  15.6 km/h 58 % 0.0 in /  0 mm
18:12 15.4 °F /  -9.2 °C 5.0 °F /  -15 °C 1014.8 in /  34361.1 hPa WNW 9.3 mph /  15 km/h 9.3 mph /  15 km/h 50 % 0.0 in /  0 mm
18:17 15.3 °F /  -9.3 °C 4.9 °F /  -15.1 °C 1014.8 in /  34361.1 hPa West 9.3 mph /  15 km/h 9.3 mph /  15 km/h 50 % 0.0 in /  0 mm
18:20 9.7 °F /  -12.4 °C 2.1 °F /  -16.6 °C 1016.8 in /  34428.8 hPa West 4.8 mph /  7.7 km/h 11.3 mph /  18.2 km/h 59 % 0.0 in /  0 mm
18:23 15.3 °F /  -9.3 °C 4.9 °F /  -15.1 °C 1015.8 in /  34395 hPa WNW 13.0 mph /  20.9 km/h 13.0 mph /  20.9 km/h 50 % 0.0 in /  0 mm
18:28 15.4 °F /  -9.2 °C 5.0 °F /  -15 °C 1015.8 in /  34395 hPa WSW 13.0 mph /  20.9 km/h 13.0 mph /  20.9 km/h 50 % 0.0 in /  0 mm
18:30 9.6 °F /  -12.4 °C 1.9 °F /  -16.7 °C 1017.8 in /  34462.7 hPa WSW 1.6 mph /  2.6 km/h 6.4 mph /  10.3 km/h 59 % 0.0 in /  0 mm
18:33 15.3 °F /  -9.3 °C 4.9 °F /  -15.1 °C 1015.8 in /  34395 hPa West 7.4 mph /  11.9 km/h 7.4 mph /  11.9 km/h 50 % 0.0 in /  0 mm
18:38 15.2 °F /  -9.3 °C 4.8 °F /  -15.1 °C 1014.8 in /  34361.1 hPa WSW 10.0 mph /  16.1 km/h 10.0 mph /  16.1 km/h 50 % 0.0 in /  0 mm
18:40 9.4 °F /  -12.6 °C 2.0 °F /  -16.7 °C 1016.8 in /  34428.8 hPa SW 1.6 mph /  2.6 km/h 6.4 mph /  10.3 km/h 60 % 0.0 in /  0 mm
18:43 15.3 °F /  -9.3 °C 4.3 °F /  -15.4 °C 1014.8 in /  34361.1 hPa West 20.4 mph /  32.8 km/h 20.4 mph /  32.8 km/h 48 % 0.0 in /  0 mm
18:48 15.2 °F /  -9.3 °C 4.3 °F /  -15.4 °C 1014.8 in /  34361.1 hPa West 11.4 mph /  18.3 km/h 13.7 mph /  22 km/h 48 % 0.0 in /  0 mm
18:50 9.1 °F /  -12.7 °C 1.7 °F /  -16.8 °C 1016.8 in /  34428.8 hPa SW 1.6 mph /  2.6 km/h 4.8 mph /  7.7 km/h 60 % 0.0 in /  0 mm
18:53 15.0 °F /  -9.4 °C 4.1 °F /  -15.5 °C 1015.8 in /  34395 hPa WSW 9.3 mph /  15 km/h 9.3 mph /  15 km/h 48 % 0.0 in /  0 mm
18:58 14.9 °F /  -9.5 °C 4.0 °F /  -15.6 °C 1015.8 in /  34395 hPa SW 16.7 mph /  26.9 km/h 16.7 mph /  26.9 km/h 48 % 0.0 in /  0 mm
19:00 9.1 °F /  -12.7 °C 1.7 °F /  -16.8 °C 1017.8 in /  34462.7 hPa WSW 4.8 mph /  7.7 km/h 9.7 mph /  15.6 km/h 60 % 0.0 in /  0 mm
19:03 14.7 °F /  -9.6 °C 3.8 °F /  -15.7 °C 1015.8 in /  34395 hPa West 12.2 mph /  19.6 km/h 12.2 mph /  19.6 km/h 48 % 0.0 in /  0 mm
19:08 14.6 °F /  -9.7 °C 3.7 °F /  -15.7 °C 1014.8 in /  34361.1 hPa West 13.0 mph /  20.9 km/h 13.0 mph /  20.9 km/h 48 % 0.0 in /  0 mm
19:10 9.1 °F /  -12.7 °C 1.9 °F /  -16.7 °C 1016.8 in /  34428.8 hPa WSW 4.8 mph /  7.7 km/h 9.7 mph /  15.6 km/h 61 % 0.0 in /  0 mm
19:13 14.4 °F /  -9.8 °C 3.5 °F /  -15.8 °C 1014.8 in /  34361.1 hPa WSW 14.8 mph /  23.8 km/h 14.8 mph /  23.8 km/h 48 % 0.0 in /  0 mm
19:18 14.3 °F /  -9.8 °C 3.4 °F /  -15.9 °C 1014.8 in /  34361.1 hPa WSW 11.1 mph /  17.9 km/h 11.1 mph /  17.9 km/h 48 % 0.0 in /  0 mm
19:20 9.1 °F /  -12.7 °C 1.9 °F /  -16.7 °C 1016.8 in /  34428.8 hPa WSW 3.2 mph /  5.1 km/h 4.8 mph /  7.7 km/h 61 % 0.0 in /  0 mm
19:23 14.2 °F /  -9.9 °C 3.3 °F /  -15.9 °C 1015.8 in /  34395 hPa West 13.0 mph /  20.9 km/h 13.0 mph /  20.9 km/h 48 % 0.0 in /  0 mm
19:28 14.1 °F /  -9.9 °C 3.2 °F /  -16 °C 1015.8 in /  34395 hPa WNW 20.9 mph /  33.6 km/h 20.9 mph /  33.6 km/h 48 % 0.0 in /  0 mm
19:30 8.9 °F /  -12.8 °C 1.8 °F /  -16.8 °C 1016.8 in /  34428.8 hPa WSW 3.2 mph /  5.1 km/h 4.8 mph /  7.7 km/h 61 % 0.0 in /  0 mm
19:33 14.0 °F /  -10 °C 3.2 °F /  -16 °C 1015.8 in /  34395 hPa WSW 16.9 mph /  27.2 km/h 16.9 mph /  27.2 km/h 48 % 0.0 in /  0 mm
19:38 13.9 °F /  -10.1 °C 3.1 °F /  -16.1 °C 1015.8 in /  34395 hPa WSW 9.3 mph /  15 km/h 9.3 mph /  15 km/h 48 % 0.0 in /  0 mm
19:40 8.7 °F /  -12.9 °C 1.6 °F /  -16.9 °C 1016.8 in /  34428.8 hPa WSW 3.2 mph /  5.1 km/h 4.8 mph /  7.7 km/h 61 % 0.0 in /  0 mm
19:43 13.8 °F /  -10.1 °C 2.9 °F /  -16.2 °C 1015.8 in /  34395 hPa WSW 9.3 mph /  15 km/h 9.3 mph /  15 km/h 48 % 0.0 in /  0 mm
19:48 13.6 °F /  -10.2 °C 2.8 °F /  -16.2 °C 1015.8 in /  34395 hPa West 5.6 mph /  9 km/h 5.6 mph /  9 km/h 48 % 0.0 in /  0 mm
19:50 8.6 °F /  -13 °C 1.7 °F /  -16.8 °C 1016.8 in /  34428.8 hPa WSW 1.6 mph /  2.6 km/h 3.2 mph /  5.1 km/h 62 % 0.0 in /  0 mm
19:53 13.4 °F /  -10.3 °C 2.6 °F /  -16.3 °C 1014.8 in /  34361.1 hPa West 9.5 mph /  15.3 km/h 9.5 mph /  15.3 km/h 48 % 0.0 in /  0 mm
19:58 13.3 °F /  -10.4 °C 2.8 °F /  -16.2 °C 1014.8 in /  34361.1 hPa SSW 9.3 mph /  15 km/h 9.3 mph /  15 km/h 49 % 0.0 in /  0 mm
20:00 8.5 °F /  -13.1 °C 1.6 °F /  -16.9 °C 1017.8 in /  34462.7 hPa WSW 3.2 mph /  5.1 km/h 6.4 mph /  10.3 km/h 62 % 0.0 in /  0 mm
20:03 13.2 °F /  -10.4 °C 2.7 °F /  -16.3 °C 1014.8 in /  34361.1 hPa West 13.0 mph /  20.9 km/h 13.0 mph /  20.9 km/h 49 % 0.0 in /  0 mm
20:08 13.1 °F /  -10.5 °C 2.6 °F /  -16.3 °C 1015.8 in /  34395 hPa West 9.3 mph /  15 km/h 9.3 mph /  15 km/h 49 % 0.0 in /  0 mm
20:10 8.3 °F /  -13.2 °C 1.7 °F /  -16.8 °C 1017.8 in /  34462.7 hPa WSW 1.6 mph /  2.6 km/h 3.2 mph /  5.1 km/h 63 % 0.0 in /  0 mm
20:13 13.0 °F /  -10.6 °C 2.5 °F /  -16.4 °C 1015.8 in /  34395 hPa West 9.3 mph /  15 km/h 9.3 mph /  15 km/h 49 % 0.0 in /  0 mm
20:18 12.9 °F /  -10.6 °C 2.4 °F /  -16.4 °C 1015.8 in /  34395 hPa WSW 16.7 mph /  26.9 km/h 16.7 mph /  26.9 km/h 49 % 0.0 in /  0 mm
20:20 8.2 °F /  -13.2 °C 1.6 °F /  -16.9 °C 1017.8 in /  34462.7 hPa Calm   1.6 mph /  2.6 km/h 63 % 0.0 in /  0 mm
20:23 12.9 °F /  -10.6 °C 2.4 °F /  -16.4 °C 1015.8 in /  34395 hPa West 11.1 mph /  17.9 km/h 11.1 mph /  17.9 km/h 49 % 0.0 in /  0 mm
20:28 12.7 °F /  -10.7 °C 2.6 °F /  -16.3 °C 1015.8 in /  34395 hPa WSW 9.3 mph /  15 km/h 9.3 mph /  15 km/h 50 % 0.0 in /  0 mm
20:30 8.0 °F /  -13.3 °C 1.6 °F /  -16.9 °C 1017.8 in /  34462.7 hPa SSW 1.6 mph /  2.6 km/h 3.2 mph /  5.1 km/h 64 % 0.0 in /  0 mm
20:33 12.6 °F /  -10.8 °C 2.4 °F /  -16.4 °C 1015.8 in /  34395 hPa WNW 7.4 mph /  11.9 km/h 7.4 mph /  11.9 km/h 50 % 0.0 in /  0 mm
20:38 12.5 °F /  -10.8 °C 2.3 °F /  -16.5 °C 1015.8 in /  34395 hPa NW 7.4 mph /  11.9 km/h 7.4 mph /  11.9 km/h 50 % 0.0 in /  0 mm
20:40 8.0 °F /  -13.3 °C 1.6 °F /  -16.9 °C 1017.8 in /  34462.7 hPa Calm   1.6 mph /  2.6 km/h 64 % 0.0 in /  0 mm
20:43 12.4 °F /  -10.9 °C 2.3 °F /  -16.5 °C 1015.8 in /  34395 hPa WNW 13.0 mph /  20.9 km/h 13.0 mph /  20.9 km/h 50 % 0.0 in /  0 mm
20:48 12.3 °F /  -10.9 °C 2.2 °F /  -16.6 °C 1015.8 in /  34395 hPa NNE 9.3 mph /  15 km/h 9.3 mph /  15 km/h 50 % 0.0 in /  0 mm
20:53 12.3 °F /  -10.9 °C 2.2 °F /  -16.6 °C 1016.8 in /  34428.8 hPa WNW 9.3 mph /  15 km/h 9.3 mph /  15 km/h 50 % 0.0 in /  0 mm
20:58 12.2 °F /  -11 °C 2.3 °F /  -16.5 °C 1016.8 in /  34428.8 hPa SE 5.6 mph /  9 km/h 5.6 mph /  9 km/h 51 % 0.0 in /  0 mm
21:00 7.7 °F /  -13.5 °C 1.3 °F /  -17.1 °C 1017.8 in /  34462.7 hPa Calm   4.8 mph /  7.7 km/h 64 % 0.0 in /  0 mm
21:03 12.1 °F /  -11.1 °C 2.3 °F /  -16.5 °C 1016.8 in /  34428.8 hPa WSW 13.0 mph /  20.9 km/h 13.0 mph /  20.9 km/h 51 % 0.0 in /  0 mm
21:08 12.0 °F /  -11.1 °C 2.2 °F /  -16.6 °C 1016.8 in /  34428.8 hPa WSW 5.6 mph /  9 km/h 5.6 mph /  9 km/h 51 % 0.0 in /  0 mm
21:10 7.6 °F /  -13.6 °C 1.2 °F /  -17.1 °C 1017.8 in /  34462.7 hPa Calm   3.2 mph /  5.1 km/h 64 % 0.0 in /  0 mm
21:13 11.9 °F /  -11.2 °C 2.1 °F /  -16.6 °C 1016.8 in /  34428.8 hPa SSW 7.4 mph /  11.9 km/h 7.4 mph /  11.9 km/h 51 % 0.0 in /  0 mm
21:18 11.8 °F /  -11.2 °C 2.0 °F /  -16.7 °C 1016.8 in /  34428.8 hPa West 5.6 mph /  9 km/h 5.6 mph /  9 km/h 51 % 0.0 in /  0 mm
21:20 7.7 °F /  -13.5 °C 1.3 °F /  -17.1 °C 1017.8 in /  34462.7 hPa WSW 1.6 mph /  2.6 km/h 4.8 mph /  7.7 km/h 64 % 0.0 in /  0 mm
21:23 11.8 °F /  -11.2 °C 2.0 °F /  -16.7 °C 1015.8 in /  34395 hPa West 11.1 mph /  17.9 km/h 11.1 mph /  17.9 km/h 51 % 0.0 in /  0 mm
21:28 11.7 °F /  -11.3 °C 1.9 °F /  -16.7 °C 1015.8 in /  34395 hPa NE 9.3 mph /  15 km/h 9.3 mph /  15 km/h 51 % 0.0 in /  0 mm
21:30 7.9 °F /  -13.4 °C 1.3 °F /  -17.1 °C 1017.8 in /  34462.7 hPa West 4.8 mph /  7.7 km/h 4.8 mph /  7.7 km/h 63 % 0.0 in /  0 mm
21:33 11.6 °F /  -11.3 °C 2.1 °F /  -16.6 °C 1015.8 in /  34395 hPa West 9.3 mph /  15 km/h 9.3 mph /  15 km/h 52 % 0.0 in /  0 mm
21:38 11.6 °F /  -11.3 °C 2.1 °F /  -16.6 °C 1015.8 in /  34395 hPa West 9.3 mph /  15 km/h 9.3 mph /  15 km/h 52 % 0.0 in /  0 mm
21:40 8.2 °F /  -13.2 °C 1.3 °F /  -17.1 °C 1016.8 in /  34428.8 hPa West 4.8 mph /  7.7 km/h 8.0 mph /  12.9 km/h 62 % 0.0 in /  0 mm
21:43 11.5 °F /  -11.4 °C 2.0 °F /  -16.7 °C 1015.8 in /  34395 hPa WSW 6.4 mph /  10.3 km/h 6.4 mph /  10.3 km/h 52 % 0.0 in /  0 mm
21:48 11.4 °F /  -11.4 °C 1.9 °F /  -16.7 °C 1015.8 in /  34395 hPa WSW 7.4 mph /  11.9 km/h 7.4 mph /  11.9 km/h 52 % 0.0 in /  0 mm
21:50 7.9 °F /  -13.4 °C 1.1 °F /  -17.2 °C 1016.8 in /  34428.8 hPa WSW 9.7 mph /  15.6 km/h 9.7 mph /  15.6 km/h 62 % 0.0 in /  0 mm
21:53 11.4 °F /  -11.4 °C 1.9 °F /  -16.7 °C 1016.8 in /  34428.8 hPa West 9.3 mph /  15 km/h 9.3 mph /  15 km/h 52 % 0.0 in /  0 mm
21:58 11.3 °F /  -11.5 °C 1.8 °F /  -16.8 °C 1016.8 in /  34428.8 hPa SW 7.4 mph /  11.9 km/h 7.4 mph /  11.9 km/h 52 % 0.0 in /  0 mm
22:00 8.2 °F /  -13.2 °C 1.3 °F /  -17.1 °C 1016.8 in /  34428.8 hPa WSW 8.0 mph /  12.9 km/h 8.0 mph /  12.9 km/h 62 % 0.0 in /  0 mm
22:03 11.3 °F /  -11.5 °C 1.8 °F /  -16.8 °C 1016.8 in /  34428.8 hPa SW 9.3 mph /  15 km/h 9.3 mph /  15 km/h 52 % 0.0 in /  0 mm
22:08 11.2 °F /  -11.6 °C 1.9 °F /  -16.7 °C 1016.8 in /  34428.8 hPa WNW 9.3 mph /  15 km/h 9.3 mph /  15 km/h 53 % 0.0 in /  0 mm
22:10 8.2 °F /  -13.2 °C 1.1 °F /  -17.2 °C 1016.8 in /  34428.8 hPa WSW 4.8 mph /  7.7 km/h 8.0 mph /  12.9 km/h 61 % 0.0 in /  0 mm
22:13 11.2 °F /  -11.6 °C 1.9 °F /  -16.7 °C 1016.8 in /  34428.8 hPa West 14.8 mph /  23.8 km/h 14.8 mph /  23.8 km/h 53 % 0.0 in /  0 mm
22:18 11.1 °F /  -11.6 °C 1.9 °F /  -16.7 °C 1016.8 in /  34428.8 hPa NNW 9.3 mph /  15 km/h 9.3 mph /  15 km/h 53 % 0.0 in /  0 mm
22:20 7.9 °F /  -13.4 °C 0.8 °F /  -17.3 °C 1016.8 in /  34428.8 hPa WSW 3.2 mph /  5.1 km/h 4.8 mph /  7.7 km/h 61 % 0.0 in /  0 mm
22:23 11.0 °F /  -11.7 °C 1.8 °F /  -16.8 °C 1017.8 in /  34462.7 hPa South 13.0 mph /  20.9 km/h 13.0 mph /  20.9 km/h 53 % 0.0 in /  0 mm
22:28 11.0 °F /  -11.7 °C 1.8 °F /  -16.8 °C 1017.8 in /  34462.7 hPa WSW 5.6 mph /  9 km/h 5.6 mph /  9 km/h 53 % 0.0 in /  0 mm
22:30 7.9 °F /  -13.4 °C 1.1 °F /  -17.2 °C 1015.8 in /  34395 hPa WSW 4.8 mph /  7.7 km/h 6.4 mph /  10.3 km/h 62 % 0.0 in /  0 mm
22:33 10.9 °F /  -11.7 °C 1.7 °F /  -16.8 °C 1017.8 in /  34462.7 hPa NNW 3.9 mph /  6.3 km/h   53 % 0.0 in /  0 mm
22:38 10.8 °F /  -11.8 °C 1.8 °F /  -16.8 °C 1017.8 in /  34462.7 hPa WSW 7.4 mph /  11.9 km/h 7.4 mph /  11.9 km/h 54 % 0.0 in /  0 mm
22:40 7.9 °F /  -13.4 °C 1.1 °F /  -17.2 °C 1016.8 in /  34428.8 hPa WSW 4.8 mph /  7.7 km/h 6.4 mph /  10.3 km/h 62 % 0.0 in /  0 mm
22:43 10.8 °F /  -11.8 °C 1.8 °F /  -16.8 °C 1017.8 in /  34462.7 hPa SW 3.7 mph /  6 km/h 3.7 mph /  6 km/h 54 % 0.0 in /  0 mm
22:48 10.8 °F /  -11.8 °C 1.8 °F /  -16.8 °C 1017.8 in /  34462.7 hPa South 9.3 mph /  15 km/h 9.3 mph /  15 km/h 54 % 0.0 in /  0 mm
22:50 7.7 °F /  -13.5 °C 0.9 °F /  -17.3 °C 1016.8 in /  34428.8 hPa WSW 4.8 mph /  7.7 km/h 6.4 mph /  10.3 km/h 62 % 0.0 in /  0 mm
22:53 10.7 °F /  -11.8 °C 1.8 °F /  -16.8 °C 1017.8 in /  34462.7 hPa WSW 7.9 mph /  12.7 km/h 7.9 mph /  12.7 km/h 54 % 0.0 in /  0 mm
22:58 10.6 °F /  -11.9 °C 1.7 °F /  -16.8 °C 1017.8 in /  34462.7 hPa WSW 7.4 mph /  11.9 km/h 7.4 mph /  11.9 km/h 54 % 0.0 in /  0 mm
23:00 7.6 °F /  -13.6 °C 0.8 °F /  -17.3 °C 1016.8 in /  34428.8 hPa WSW 3.2 mph /  5.1 km/h 6.4 mph /  10.3 km/h 62 % 0.0 in /  0 mm
23:03 10.6 °F /  -11.9 °C 1.7 °F /  -16.8 °C 1017.8 in /  34462.7 hPa NNE 7.4 mph /  11.9 km/h 7.4 mph /  11.9 km/h 54 % 0.0 in /  0 mm
23:08 10.5 °F /  -11.9 °C 1.8 °F /  -16.8 °C 1017.8 in /  34462.7 hPa SW 5.6 mph /  9 km/h 5.6 mph /  9 km/h 55 % 0.0 in /  0 mm
23:10 7.5 °F /  -13.6 °C 0.7 °F /  -17.4 °C 1016.8 in /  34428.8 hPa WSW 4.8 mph /  7.7 km/h 6.4 mph /  10.3 km/h 62 % 0.0 in /  0 mm
23:13 10.5 °F /  -11.9 °C 1.8 °F /  -16.8 °C 1017.8 in /  34462.7 hPa SW 5.6 mph /  9 km/h 5.6 mph /  9 km/h 55 % 0.0 in /  0 mm
23:18 10.4 °F /  -12 °C 1.7 °F /  -16.8 °C 1017.8 in /  34462.7 hPa West 13.0 mph /  20.9 km/h 13.0 mph /  20.9 km/h 55 % 0.0 in /  0 mm
23:20 7.5 °F /  -13.6 °C 0.7 °F /  -17.4 °C 1016.8 in /  34428.8 hPa WSW 8.0 mph /  12.9 km/h 8.0 mph /  12.9 km/h 62 % 0.0 in /  0 mm
23:23 10.4 °F /  -12 °C 1.7 °F /  -16.8 °C 1017.8 in /  34462.7 hPa WSW 7.9 mph /  12.7 km/h 7.9 mph /  12.7 km/h 55 % 0.0 in /  0 mm
23:28 10.3 °F /  -12.1 °C 1.7 °F /  -16.8 °C 1017.8 in /  34462.7 hPa WSW 11.1 mph /  17.9 km/h 11.1 mph /  17.9 km/h 55 % 0.0 in /  0 mm
23:30 7.5 °F /  -13.6 °C 0.7 °F /  -17.4 °C 1016.8 in /  34428.8 hPa WSW 9.7 mph /  15.6 km/h 9.7 mph /  15.6 km/h 62 % 0.0 in /  0 mm
23:33 10.2 °F /  -12.1 °C 1.8 °F /  -16.8 °C 1017.8 in /  34462.7 hPa West 9.3 mph /  15 km/h 9.3 mph /  15 km/h 56 % 0.0 in /  0 mm
23:38 10.1 °F /  -12.2 °C 1.7 °F /  -16.8 °C 1017.8 in /  34462.7 hPa WSW 9.3 mph /  15 km/h 9.3 mph /  15 km/h 56 % 0.0 in /  0 mm
23:40 7.3 °F /  -13.7 °C 0.5 °F /  -17.5 °C 1016.8 in /  34428.8 hPa WSW 4.8 mph /  7.7 km/h 6.4 mph /  10.3 km/h 62 % 0.0 in /  0 mm
23:43 10.0 °F /  -12.2 °C 1.9 °F /  -16.7 °C 1017.8 in /  34462.7 hPa SW 9.3 mph /  15 km/h 9.3 mph /  15 km/h 57 % 0.0 in /  0 mm
23:48 9.9 °F /  -12.3 °C 1.8 °F /  -16.8 °C 1017.8 in /  34462.7 hPa WNW 7.4 mph /  11.9 km/h 7.4 mph /  11.9 km/h 57 % 0.0 in /  0 mm
23:50 7.4 °F /  -13.7 °C 0.6 °F /  -17.4 °C 1016.8 in /  34428.8 hPa West 8.0 mph /  12.9 km/h 9.7 mph /  15.6 km/h 62 % 0.0 in /  0 mm
23:53 9.9 °F /  -12.3 °C 1.8 °F /  -16.8 °C 1016.8 in /  34428.8 hPa WSW 9.3 mph /  15 km/h 9.3 mph /  15 km/h 57 % 0.0 in /  0 mm
23:58 9.9 °F /  -12.3 °C 2.0 °F /  -16.7 °C 1016.8 in /  34428.8 hPa WSW 7.4 mph /  11.9 km/h 7.4 mph /  11.9 km/h 58 % 0.0 in /  0 mm
Meteo Sesrovires
Elogis d' Weather Underground - 2 mb

Guio original per  Jim McMurry - jmcmurry@mwt.net Adaptat per a la plantilla per  Wim van der Kuil - Leuven-Template.eu

Trobareu la nostra informacio del temps tambe a:

Weather Underground

AWEKAS